Time;durP1;ratioP1;P1;durP2;ratioP2;P2;SDS_P1;SDS_P2;PMS_P1;PMS_P2;Temp;Humidity;BMP_temperature;BMP_pressure;BME280_temperature;BME280_humidity;BME280_pressure;Samples;Min_cycle;Max_cycle;Signal;HPM_P1;HPM_P2
2022/04/18 00:00:49;;;;;;;20.30;9.77;;;;;;;38.84;41.37;100927.56;6158596;23;20466;-74
2022/04/18 00:03:15;;;;;;;29.83;12.00;;;;;;;38.62;41.05;100925.66;6157857;23;20419;-76
2022/04/18 00:05:41;;;;;;;22.00;9.07;;;;;;;38.47;41.01;100913.28;6158066;23;20383;-75
2022/04/18 00:08:08;;;;;;;47.83;12.57;;;;;;;38.31;42.50;100901.22;6157793;23;20788;-73
2022/04/18 00:10:34;;;;;;;33.63;13.90;;;;;;;37.26;43.71;100877.69;6155619;23;20384;-75
2022/04/18 00:13:00;;;;;;;19.50;9.40;;;;;;;36.78;44.02;100885.34;6157953;23;20835;-73
2022/04/18 00:15:26;;;;;;;32.53;10.77;;;;;;;37.26;44.77;100903.91;6184158;23;20396;-73
2022/04/18 00:17:53;;;;;;;34.53;14.53;;;;;;;37.53;44.88;100909.38;6157478;23;20383;-76
2022/04/18 00:20:19;;;;;;;32.23;13.50;;;;;;;37.77;45.36;100905.63;6157812;23;20384;-74
2022/04/18 00:22:45;;;;;;;26.90;10.50;;;;;;;37.81;45.05;100901.22;6157777;23;20725;-74
2022/04/18 00:25:11;;;;;;;35.10;12.50;;;;;;;38.00;45.15;100904.63;6155850;23;20736;-75
2022/04/18 00:27:38;;;;;;;26.97;12.20;;;;;;;38.12;45.29;100917.59;6155574;23;20867;-78
2022/04/18 00:30:05;;;;;;;14.13;9.10;;;;;;;38.13;45.47;100913.78;6156051;23;20394;-76
2022/04/18 00:32:33;;;;;;;31.80;10.87;;;;;;;38.34;45.27;100914.13;6155509;23;20442;-76
2022/04/18 00:34:59;;;;;;;23.50;9.33;;;;;;;38.47;45.72;100926.81;6155465;23;20404;-75
2022/04/18 00:37:25;;;;;;;15.50;7.57;;;;;;;38.55;46.24;100926.09;6155776;23;20443;-77
2022/04/18 00:39:51;;;;;;;13.63;6.43;;;;;;;38.43;45.95;100928.56;6155536;23;20388;-76
2022/04/18 00:42:17;;;;;;;20.80;4.50;;;;;;;38.10;46.90;100917.91;6155586;23;20460;-76
2022/04/18 00:44:43;;;;;;;8.27;4.03;;;;;;;38.18;46.03;100911.78;6156264;23;20384;-75
2022/04/18 00:47:09;;;;;;;10.83;4.13;;;;;;;37.81;46.77;100906.63;6184246;23;20410;-76
2022/04/18 00:49:35;;;;;;;16.23;4.73;;;;;;;37.86;47.76;100898.41;6157415;23;20403;-74
2022/04/18 00:52:04;;;;;;;14.93;4.97;;;;;;;38.06;48.01;100872.75;6157254;23;20435;-74
2022/04/18 00:54:32;;;;;;;12.23;3.80;;;;;;;38.00;47.44;100850.44;6157562;23;20384;-73
2022/04/18 00:56:58;;;;;;;12.30;4.20;;;;;;;37.97;47.10;100834.00;6157754;23;20395;-74
2022/04/18 00:59:25;;;;;;;12.43;4.23;;;;;;;38.19;46.46;100842.13;6157670;23;20408;-74
2022/04/18 01:01:51;;;;;;;9.27;3.80;;;;;;;37.98;46.94;100836.38;6184172;23;20411;-74
2022/04/18 01:04:17;;;;;;;15.47;4.63;;;;;;;38.21;46.58;100847.25;6157893;23;20384;-74
2022/04/18 01:06:43;;;;;;;11.80;4.83;;;;;;;37.82;47.34;100860.34;6157359;23;20447;-76
2022/04/18 01:09:09;;;;;;;14.83;5.10;;;;;;;37.23;48.25;100836.91;6157512;23;20919;-75
2022/04/18 01:11:35;;;;;;;16.27;5.87;;;;;;;36.80;47.86;100851.50;6157503;23;20769;-77
2022/04/18 01:14:02;;;;;;;17.70;5.80;;;;;;;37.22;47.29;100900.22;6157584;23;20384;-76
2022/04/18 01:16:29;;;;;;;9.87;4.23;;;;;;;37.55;44.40;100982.94;6157489;23;20403;-76
2022/04/18 01:18:57;;;;;;;31.63;11.30;;;;;;;37.05;43.40;100979.25;6157317;23;20446;-76
2022/04/18 01:21:23;;;;;;;36.27;13.50;;;;;;;36.76;44.74;100960.50;6156966;23;20388;-75
2022/04/18 01:23:50;;;;;;;27.93;13.40;;;;;;;36.77;43.48;100983.72;6157343;23;20759;-76
2022/04/18 01:29:03;;;;;;;25.17;10.87;;;;;;;36.44;44.79;100935.06;6184426;23;20399;-74
2022/04/18 01:31:38;;;;;;;17.03;8.00;;;;;;;36.38;45.27;100936.19;6157316;23;20481;-72
2022/04/18 01:34:05;;;;;;;28.57;10.50;;;;;;;36.34;45.37;100929.81;6157565;23;20466;-74
2022/04/18 01:36:32;;;;;;;27.40;10.73;;;;;;;36.46;44.57;100934.75;6157504;23;20746;-73
2022/04/18 01:38:58;;;;;;;22.17;9.60;;;;;;;36.58;44.90;100948.63;6157895;23;20430;-74
2022/04/18 01:41:25;;;;;;;25.87;9.63;;;;;;;36.63;44.87;100936.94;6157919;23;20535;-75
2022/04/18 07:55:06;;;;;;;6.13;4.30;;;;;;;32.44;55.18;101164.47;5148748;27;20353;-67
2022/04/18 07:57:32;;;;;;;8.00;4.53;;;;;;;32.33;54.84;101176.19;5128774;28;20427;-69
2022/04/18 07:59:58;;;;;;;6.80;4.63;;;;;;;31.82;56.49;101189.25;5130274;27;20413;-71
2022/04/18 08:02:24;;;;;;;10.73;4.80;;;;;;;32.58;54.51;101188.97;5129836;27;20400;-71
2022/04/18 08:04:50;;;;;;;6.40;3.20;;;;;;;32.11;54.95;101181.69;5120910;27;20561;-71
2022/04/18 08:07:16;;;;;;;6.97;4.00;;;;;;;32.20;55.59;101193.56;5106515;28;20505;-70
2022/04/18 08:09:42;;;;;;;8.23;5.23;;;;;;;32.14;55.02;101188.41;5106777;28;20420;-71
2022/04/18 08:12:12;;;;;;;7.60;5.70;;;;;;;32.71;54.33;101193.03;5107881;28;20424;-70
2022/04/18 08:14:38;;;;;;;10.10;5.13;;;;;;;32.56;54.37;101197.28;5091460;28;20408;-70
2022/04/18 08:17:05;;;;;;;13.00;5.20;;;;;;;32.27;55.24;101188.75;5112418;27;20966;-70
2022/04/18 08:19:31;;;;;;;7.90;5.30;;;;;;;32.28;54.87;101182.31;5107275;28;20435;-73
2022/04/18 08:21:57;;;;;;;10.20;5.30;;;;;;;32.15;54.70;101176.59;5107645;28;20415;-70
2022/04/18 08:24:23;;;;;;;8.83;4.90;;;;;;;31.97;55.40;101175.94;5090575;28;20456;-74
2022/04/18 08:26:49;;;;;;;8.13;5.10;;;;;;;32.17;55.23;101183.34;5107773;28;20443;-72
2022/04/18 08:29:16;;;;;;;9.33;6.03;;;;;;;32.35;54.30;101185.63;5106970;28;20935;-76
2022/04/18 08:31:42;;;;;;;8.20;5.73;;;;;;;32.48;54.53;101187.03;5107568;28;20936;-74
2022/04/18 08:34:08;;;;;;;12.63;6.73;;;;;;;32.39;54.05;101177.06;5107602;28;20408;-73
2022/04/18 08:36:34;;;;;;;9.63;6.03;;;;;;;33.13;53.13;101174.16;5107158;28;20534;-70
2022/04/18 08:39:00;;;;;;;9.87;6.37;;;;;;;33.44;51.69;101179.63;5107391;28;20507;-68
2022/04/18 08:41:37;;;;;;;9.13;7.07;;;;;;;32.60;53.94;101176.09;5107020;28;20523;-71
2022/04/18 08:44:04;;;;;;;11.40;8.17;;;;;;;33.01;52.57;101170.88;5100266;28;20456;-72
2022/04/18 08:46:30;;;;;;;12.60;7.13;;;;;;;32.60;53.54;101174.22;5086726;28;20452;-70
2022/04/18 08:54:29;;;;;;;22.90;9.23;;;;;;;32.88;53.00;101143.44;5082461;28;20506;-72
2022/04/18 08:56:56;;;;;;;16.90;9.73;;;;;;;32.82;53.48;101144.47;5074441;28;20390;-71
2022/04/18 08:59:22;;;;;;;13.70;7.87;;;;;;;32.66;53.24;101148.19;5073253;28;20929;-71
2022/04/18 09:01:50;;;;;;;18.50;11.10;;;;;;;32.92;53.12;101137.56;5079693;28;20448;-70
2022/04/18 09:04:20;;;;;;;15.50;8.93;;;;;;;32.35;54.49;101144.56;5069439;28;20526;-70
2022/04/18 09:06:46;;;;;;;23.03;10.13;;;;;;;32.60;53.90;101131.25;5071434;28;20851;-72
2022/04/18 09:09:14;;;;;;;13.07;8.67;;;;;;;32.28;54.67;101128.63;5071537;28;20483;-69
2022/04/18 09:11:43;;;;;;;14.50;7.63;;;;;;;32.42;54.16;101125.53;5071448;28;20445;-70
2022/04/18 09:14:15;;;;;;;11.70;7.53;;;;;;;32.66;53.47;101123.19;5071352;28;20428;-72
2022/04/18 09:16:42;;;;;;;10.37;8.10;;;;;;;32.96;52.43;101106.38;5075722;28;20464;-70
2022/04/18 09:19:17;;;;;;;11.33;7.10;;;;;;;32.75;53.09;101103.63;5077795;28;20527;-68
2022/04/18 09:21:57;;;;;;;12.17;7.67;;;;;;;32.34;53.19;101094.59;5076095;28;20425;-68
2022/04/18 09:24:31;;;;;;;14.53;7.07;;;;;;;32.46;53.58;101091.69;5081498;28;20582;-70
2022/04/18 09:27:04;;;;;;;12.27;8.63;;;;;;;32.52;52.43;101096.00;5087955;28;20477;-70
2022/04/18 09:29:38;;;;;;;35.13;9.87;;;;;;;32.82;52.00;101088.06;5086233;28;20457;-70
2022/04/18 09:32:13;;;;;;;16.63;9.07;;;;;;;32.90;51.54;101094.81;5057918;28;20421;-71
2022/04/18 09:34:41;;;;;;;22.77;13.30;;;;;;;32.94;51.95;101105.84;5077780;28;20512;-72
2022/04/18 09:37:11;;;;;;;13.90;12.47;;;;;;;33.24;50.57;101089.75;5084958;28;20436;-71
2022/04/18 09:39:37;;;;;;;12.50;8.53;;;;;;;33.47;50.23;101090.34;5087348;28;20433;-71
2022/04/18 09:42:14;;;;;;;20.27;13.03;;;;;;;33.31;50.90;101084.91;5079029;28;20509;-68
2022/04/18 09:44:41;;;;;;;19.13;10.23;;;;;;;33.33;50.17;101080.09;5080201;28;20850;-70
2022/04/18 09:47:07;;;;;;;19.03;11.03;;;;;;;33.56;49.94;101080.63;5078199;28;20429;-68
2022/04/18 09:49:40;;;;;;;25.27;11.57;;;;;;;33.60;49.42;101070.97;5074656;28;20602;-69
2022/04/18 09:52:11;;;;;;;18.80;11.53;;;;;;;33.54;49.56;101063.97;5078975;28;20568;-69
2022/04/18 09:54:53;;;;;;;18.70;11.80;;;;;;;33.56;49.48;101061.81;5071142;28;20477;-70
2022/04/18 09:57:22;;;;;;;17.07;12.20;;;;;;;33.78;49.07;101066.91;5078953;28;20424;-71
2022/04/18 09:59:53;;;;;;;16.23;9.67;;;;;;;33.49;48.28;101063.97;5070106;28;20514;-71
2022/04/18 10:02:20;;;;;;;18.83;10.17;;;;;;;33.90;47.62;101065.53;5070173;28;20421;-74
2022/04/18 10:04:47;;;;;;;20.50;9.40;;;;;;;34.20;47.73;101067.34;5070056;28;20418;-72
2022/04/18 10:07:14;;;;;;;24.33;11.47;;;;;;;34.44;46.72;101064.84;5069164;28;20505;-72
2022/04/18 10:09:41;;;;;;;20.47;12.40;;;;;;;34.39;46.97;101056.75;5073049;28;20437;-71
2022/04/18 10:12:09;;;;;;;28.03;13.33;;;;;;;34.54;46.36;101057.78;5071327;28;20440;-68
2022/04/18 10:14:37;;;;;;;22.47;13.10;;;;;;;34.31;46.83;101060.00;5072967;28;20642;-71
2022/04/18 10:17:05;;;;;;;32.53;15.77;;;;;;;34.28;46.64;101046.31;5085090;28;20444;-70
2022/04/18 10:19:57;;;;;;;22.30;14.50;;;;;;;34.55;46.56;101051.31;5077351;28;20424;-70
2022/04/18 10:22:41;;;;;;;18.00;13.77;;;;;;;34.74;45.75;101054.97;5074345;28;20412;-70
2022/04/18 10:25:26;;;;;;;20.57;14.37;;;;;;;34.69;45.53;101060.41;5072712;28;20940;-69
2022/04/18 10:28:16;;;;;;;19.57;14.50;;;;;;;34.90;45.12;101048.41;5070896;28;20421;-68
2022/04/18 10:30:47;;;;;;;26.73;14.13;;;;;;;35.18;44.98;101054.16;5070335;28;20428;-70
2022/04/18 10:33:15;;;;;;;26.03;14.03;;;;;;;34.82;45.21;101046.31;5069899;28;20462;-68
2022/04/18 10:36:07;;;;;;;24.90;15.20;;;;;;;34.87;45.48;101040.88;5081766;28;20418;-68
2022/04/18 10:38:38;;;;;;;21.40;14.30;;;;;;;34.93;45.32;101033.59;5084506;28;20457;-67
2022/04/18 10:41:22;;;;;;;23.43;14.70;;;;;;;34.98;45.32;101037.03;5054502;28;20425;-69
2022/04/18 10:44:00;;;;;;;29.60;17.27;;;;;;;34.85;45.31;101029.56;5071562;28;20812;-68
2022/04/18 10:46:26;;;;;;;29.43;15.10;;;;;;;34.82;45.42;101040.91;5091801;28;20416;-68
2022/04/18 10:49:00;;;;;;;20.40;12.33;;;;;;;35.07;44.89;101036.44;5090420;28;20456;-70
2022/04/18 10:51:37;;;;;;;36.13;14.87;;;;;;;35.22;44.27;101036.31;5091314;28;20432;-67
2022/04/18 10:54:19;;;;;;;24.43;15.87;;;;;;;35.41;43.99;101033.72;5073885;28;20472;-67
2022/04/18 10:56:50;;;;;;;22.97;15.07;;;;;;;35.28;44.00;101030.59;5090743;28;20435;-67
2022/04/18 10:59:19;;;;;;;25.50;16.40;;;;;;;35.09;44.69;101029.69;5090970;28;20415;-65
2022/04/18 11:01:46;;;;;;;22.87;16.33;;;;;;;35.21;44.77;101037.41;5090821;28;20951;-67
2022/04/18 11:04:13;;;;;;;27.00;16.90;;;;;;;35.07;45.22;101031.88;5090763;28;20417;-69
2022/04/18 11:06:40;;;;;;;22.80;15.93;;;;;;;35.14;44.92;101026.16;5090321;28;20518;-67
2022/04/18 11:09:13;;;;;;;25.23;16.70;;;;;;;35.08;45.56;101021.88;5090602;28;20508;-67
2022/04/18 11:12:06;;;;;;;27.03;17.77;;;;;;;35.12;45.36;101012.16;5090511;28;21013;-67
2022/04/18 11:14:38;;;;;;;21.93;16.87;;;;;;;35.48;44.70;101016.16;5089818;28;21011;-67
2022/04/18 11:17:06;;;;;;;25.73;19.70;;;;;;;35.61;44.20;101019.25;5090172;28;20486;-67
2022/04/18 11:19:40;;;;;;;33.90;20.10;;;;;;;35.49;43.86;101015.06;5090251;28;20523;-67
2022/04/18 11:22:07;;;;;;;25.13;15.40;;;;;;;35.57;43.45;101008.22;5071151;28;20417;-66
2022/04/18 11:24:40;;;;;;;20.10;14.33;;;;;;;35.53;42.53;101007.97;5090241;28;20871;-67
2022/04/18 11:27:09;;;;;;;26.23;15.90;;;;;;;35.34;43.27;100996.28;5091578;28;20413;-69
2022/04/18 11:29:36;;;;;;;32.93;17.53;;;;;;;35.16;43.65;100994.31;5090221;28;20427;-66
2022/04/18 11:32:03;;;;;;;24.17;17.20;;;;;;;35.10;43.93;100996.22;5090519;28;20494;-66
2022/04/18 11:34:31;;;;;;;20.37;16.50;;;;;;;34.72;44.36;100992.47;5089978;28;20461;-67
2022/04/18 11:37:03;;;;;;;24.73;17.70;;;;;;;35.07;44.33;100985.22;5072915;28;20416;-67
2022/04/18 11:39:52;;;;;;;25.83;18.23;;;;;;;35.24;44.01;100993.69;5073591;28;21005;-67
2022/04/18 11:42:20;;;;;;;23.07;18.00;;;;;;;35.25;44.55;100995.31;5076235;28;20417;-67
2022/04/18 11:44:47;;;;;;;26.80;18.23;;;;;;;35.64;44.20;100991.69;5082567;28;20506;-67
2022/04/18 11:47:22;;;;;;;24.00;19.73;;;;;;;35.44;43.73;100980.03;5071651;28;20937;-69
2022/04/18 11:49:53;;;;;;;26.20;13.97;;;;;;;35.51;42.54;100977.81;5073262;28;20459;-66
2022/04/18 11:52:21;;;;;;;25.13;18.77;;;;;;;35.36;42.50;100969.84;5068445;28;20445;-68
2022/04/18 11:55:09;;;;;;;39.67;18.27;;;;;;;35.37;42.77;100963.38;5070545;28;20890;-67
2022/04/18 11:57:37;;;;;;;24.20;16.13;;;;;;;35.84;42.46;100956.34;5072845;28;20810;-69
2022/04/18 12:00:09;;;;;;;23.03;13.70;;;;;;;35.90;41.89;100957.09;5089637;28;20428;-71
2022/04/18 12:08:09;;;;;;;26.50;19.43;;;;;;;36.63;40.40;100936.94;5085147;28;20431;-69
2022/04/18 12:10:37;;;;;;;32.40;19.40;;;;;;;36.66;40.51;100920.13;5091008;28;20486;-69
2022/04/18 12:13:11;;;;;;;25.60;17.53;;;;;;;36.83;40.84;100917.66;5089646;28;20452;-67
2022/04/18 12:15:39;;;;;;;25.90;16.90;;;;;;;37.04;40.85;100913.53;5089650;28;20579;-69
2022/04/18 12:18:15;;;;;;;25.50;13.90;;;;;;;37.12;39.90;100907.44;5088938;28;20421;-68
2022/04/18 12:20:43;;;;;;;26.53;16.17;;;;;;;37.07;39.20;100902.09;5089336;28;20514;-69
2022/04/18 12:23:19;;;;;;;21.20;14.70;;;;;;;37.06;39.90;100897.81;5089489;28;20413;-66
2022/04/18 12:25:56;;;;;;;21.83;15.20;;;;;;;37.19;39.98;100900.81;5089796;28;20444;-66
2022/04/18 12:28:24;;;;;;;21.93;12.37;;;;;;;37.17;38.76;100884.09;5090102;28;20420;-68
2022/04/18 12:30:51;;;;;;;25.93;16.23;;;;;;;37.29;39.86;100879.78;5092744;28;20440;-71
2022/04/18 12:33:22;;;;;;;23.53;14.33;;;;;;;37.36;39.18;100876.72;5093994;28;20535;-67
2022/04/18 12:35:56;;;;;;;30.47;12.93;;;;;;;37.18;38.27;100877.59;5093032;28;20952;-68
2022/04/18 12:38:36;;;;;;;18.90;12.03;;;;;;;37.30;38.68;100875.19;5062960;28;20433;-68
2022/04/18 12:41:04;;;;;;;23.57;13.13;;;;;;;37.13;38.73;100870.38;5091958;28;20443;-68
2022/04/18 12:43:35;;;;;;;22.20;12.10;;;;;;;37.12;39.46;100864.16;5084857;28;20425;-68
2022/04/18 12:46:04;;;;;;;18.93;12.47;;;;;;;37.11;39.41;100861.75;5092500;28;20440;-73
2022/04/18 12:48:34;;;;;;;21.00;12.57;;;;;;;37.20;39.79;100856.44;5093909;28;20439;-73
2022/04/18 12:51:07;;;;;;;36.23;15.60;;;;;;;37.38;40.02;100848.25;5082469;28;20515;-69
2022/04/18 12:53:51;;;;;;;24.40;12.23;;;;;;;37.33;39.26;100845.63;5080282;28;20477;-68
2022/04/18 12:56:23;;;;;;;25.43;12.23;;;;;;;37.09;39.07;100834.22;5072894;28;20417;-68
2022/04/18 12:58:52;;;;;;;21.00;11.67;;;;;;;36.96;39.96;100835.03;5071790;28;20426;-70
2022/04/18 13:01:34;;;;;;;21.80;13.17;;;;;;;36.88;39.65;100841.91;5072386;28;20444;-69
2022/04/18 13:04:21;;;;;;;33.93;13.80;;;;;;;36.84;39.79;100836.28;5090503;28;20448;-70
2022/04/18 13:07:08;;;;;;;19.33;13.80;;;;;;;36.78;40.93;100836.69;5092879;28;20504;-70
2022/04/18 13:09:43;;;;;;;29.23;14.40;;;;;;;37.10;41.17;100831.22;5080229;28;20432;-70
2022/04/18 13:12:18;;;;;;;25.53;11.90;;;;;;;37.29;40.53;100828.38;5072310;28;20455;-68
2022/04/18 13:15:05;;;;;;;20.80;13.00;;;;;;;37.38;39.77;100823.09;5085176;28;20457;-69
2022/04/18 13:17:34;;;;;;;29.37;15.30;;;;;;;37.52;39.36;100825.78;5082357;28;20875;-69
2022/04/18 13:20:01;;;;;;;29.83;16.47;;;;;;;37.59;39.57;100821.56;5074158;28;20517;-68
2022/04/18 13:22:27;;;;;;;19.23;14.57;;;;;;;37.61;39.57;100827.44;5076582;28;20428;-68
2022/04/18 13:24:53;;;;;;;22.90;12.97;;;;;;;37.72;39.35;100836.16;5085489;28;20950;-68
2022/04/18 13:27:27;;;;;;;19.33;13.80;;;;;;;37.72;39.77;100827.22;5075242;28;20433;-68
2022/04/18 13:29:54;;;;;;;18.53;11.10;;;;;;;37.70;39.81;100824.03;5076104;28;20421;-68
2022/04/18 13:32:20;;;;;;;22.43;12.87;;;;;;;37.71;39.99;100828.34;5080125;28;20426;-68
2022/04/18 13:34:46;;;;;;;24.77;12.93;;;;;;;37.69;39.79;100819.72;5084339;28;20459;-70
2022/04/18 13:37:14;;;;;;;24.23;11.80;;;;;;;37.65;40.09;100824.94;5087115;28;20448;-68
2022/04/18 13:39:47;;;;;;;18.30;12.70;;;;;;;37.71;39.42;100821.03;5091769;28;20421;-68
2022/04/18 13:42:16;;;;;;;22.17;13.23;;;;;;;37.72;39.59;100822.63;5074069;28;20428;-70
2022/04/18 13:44:42;;;;;;;26.87;12.50;;;;;;;37.75;39.03;100826.59;5073415;28;20452;-68
2022/04/18 13:47:09;;;;;;;28.80;13.93;;;;;;;37.73;39.34;100809.88;5070828;28;20448;-68
2022/04/18 13:49:37;;;;;;;29.20;16.50;;;;;;;37.81;39.19;100818.13;5078331;28;20426;-68
2022/04/18 13:52:08;;;;;;;25.27;14.50;;;;;;;37.89;39.11;100822.78;5071413;28;21057;-68
2022/04/18 13:54:37;;;;;;;24.97;15.67;;;;;;;37.85;38.48;100823.72;5071168;28;20652;-68
2022/04/18 13:57:05;;;;;;;32.40;15.10;;;;;;;37.88;38.62;100823.09;5073028;28;20428;-70
2022/04/18 13:59:32;;;;;;;25.30;16.03;;;;;;;37.91;38.23;100814.34;5071516;28;20433;-68
2022/04/18 14:01:58;;;;;;;23.60;12.97;;;;;;;37.95;38.10;100820.78;5071272;28;20417;-70
2022/04/18 14:04:24;;;;;;;24.17;12.40;;;;;;;37.87;38.36;100818.78;5071345;28;20530;-70
2022/04/18 14:06:50;;;;;;;27.77;12.37;;;;;;;37.88;38.43;100815.00;5072701;28;20433;-68
2022/04/18 14:09:17;;;;;;;21.20;14.07;;;;;;;37.84;38.30;100809.38;5100105;28;20429;-69
2022/04/18 14:11:43;;;;;;;21.40;14.23;;;;;;;37.88;38.17;100809.56;5091380;28;20455;-68
2022/04/18 14:14:09;;;;;;;36.87;15.67;;;;;;;37.85;38.52;100810.16;5091237;28;20535;-68
2022/04/18 14:22:04;;;;;;;33.17;14.10;;;;;;;37.93;39.03;100801.31;5091528;28;20461;-68
2022/04/18 14:24:30;;;;;;;21.53;12.33;;;;;;;37.97;38.71;100791.47;5089929;28;20413;-68
2022/04/18 14:26:56;;;;;;;44.93;15.70;;;;;;;37.98;38.88;100784.13;5098412;28;20438;-68
2022/04/18 14:29:22;;;;;;;20.33;11.90;;;;;;;37.96;39.38;100789.88;5109597;28;20412;-74
2022/04/18 14:31:50;;;;;;;21.93;12.70;;;;;;;37.97;39.53;100786.06;5111742;28;20479;-70
2022/04/18 14:34:16;;;;;;;22.03;13.90;;;;;;;37.95;39.13;100790.97;5111841;28;20487;-69
2022/04/18 14:36:42;;;;;;;24.37;14.20;;;;;;;37.92;39.07;100792.38;5111711;28;20923;-69
2022/04/18 14:39:09;;;;;;;23.50;12.70;;;;;;;37.89;39.73;100789.50;5111716;28;20411;-70
2022/04/18 14:41:35;;;;;;;30.13;12.57;;;;;;;37.94;39.29;100789.38;5102640;28;20536;-72
2022/04/18 14:44:02;;;;;;;19.97;11.90;;;;;;;37.89;39.02;100784.88;5089456;28;20437;-69
2022/04/18 14:46:28;;;;;;;22.70;11.67;;;;;;;37.91;39.66;100787.28;5089415;28;20521;-69
2022/04/18 14:48:55;;;;;;;22.10;11.53;;;;;;;37.88;39.13;100785.22;5089765;28;20527;-69
2022/04/18 14:51:24;;;;;;;27.87;11.63;;;;;;;37.86;39.64;100779.28;5092290;28;20397;-69
2022/04/18 14:53:52;;;;;;;25.03;14.57;;;;;;;37.85;39.16;100777.69;5091827;28;20549;-69
2022/04/18 14:56:18;;;;;;;23.00;11.20;;;;;;;37.82;39.03;100762.88;5091134;28;20805;-69
2022/04/18 14:58:44;;;;;;;21.37;9.47;;;;;;;37.82;38.88;100778.31;5090972;28;20921;-70
2022/04/18 15:01:10;;;;;;;15.00;9.87;;;;;;;37.87;39.28;100767.34;5091699;28;20436;-71
2022/04/18 15:03:36;;;;;;;17.00;10.50;;;;;;;37.85;38.67;100777.69;5089252;28;20503;-69
2022/04/18 15:06:02;;;;;;;25.30;12.37;;;;;;;37.85;38.47;100770.34;5091901;28;20401;-71
2022/04/18 15:08:36;;;;;;;24.13;14.27;;;;;;;37.86;38.88;100768.44;5091057;28;20887;-71
2022/04/18 15:11:13;;;;;;;24.83;12.63;;;;;;;37.89;39.05;100762.44;5089599;28;20436;-69
2022/04/18 15:13:39;;;;;;;29.97;10.10;;;;;;;37.90;39.25;100762.13;5056975;28;20452;-69
2022/04/18 15:16:06;;;;;;;18.57;11.17;;;;;;;37.91;38.80;100760.19;5089780;28;20499;-69
2022/04/18 15:18:32;;;;;;;17.27;10.13;;;;;;;37.89;38.23;100752.41;5079189;28;20430;-69
2022/04/18 15:20:59;;;;;;;22.13;8.60;;;;;;;37.89;38.23;100754.31;5089972;28;20475;-69
2022/04/18 15:23:25;;;;;;;20.67;8.80;;;;;;;37.86;38.13;100749.50;5090259;28;20417;-69
2022/04/18 15:25:51;;;;;;;20.00;9.70;;;;;;;37.85;38.37;100751.41;5087777;28;21018;-71
2022/04/18 15:28:17;;;;;;;23.27;8.60;;;;;;;37.90;38.69;100742.38;5100876;28;20420;-69
2022/04/18 15:33:28;;;;;;;20.77;10.23;;;;;;;37.87;38.52;100740.25;5089372;28;20601;-69
2022/04/18 15:35:55;;;;;;;21.83;10.37;;;;;;;37.83;38.77;100739.28;5089633;28;20526;-71
2022/04/18 15:38:21;;;;;;;9.70;6.70;;;;;;;37.83;39.16;100734.69;5089567;28;20453;-69
2022/04/18 15:40:47;;;;;;;17.13;9.63;;;;;;;37.78;39.22;100732.06;5086810;28;20516;-69
2022/04/18 15:43:14;;;;;;;26.27;11.00;;;;;;;37.86;38.82;100735.97;5086910;28;20420;-69
2022/04/18 15:45:40;;;;;;;22.93;10.43;;;;;;;37.83;38.99;100733.88;5089240;28;20471;-70
2022/04/18 15:48:06;;;;;;;17.07;10.20;;;;;;;37.82;39.14;100724.97;5088062;28;20421;-69
2022/04/18 15:50:33;;;;;;;11.80;8.30;;;;;;;37.83;39.00;100725.75;5088907;28;20423;-69
2022/04/18 15:52:59;;;;;;;21.10;8.77;;;;;;;37.91;39.14;100723.09;5090595;28;20449;-69
2022/04/18 15:55:25;;;;;;;20.77;9.83;;;;;;;37.96;38.23;100716.75;5089077;28;20955;-70
2022/04/18 15:57:52;;;;;;;15.70;9.57;;;;;;;37.86;38.08;100720.50;5088796;28;20447;-69
2022/04/18 16:00:18;;;;;;;13.30;9.03;;;;;;;37.85;38.30;100728.94;5089999;28;20916;-70
2022/04/18 16:02:44;;;;;;;22.60;9.90;;;;;;;37.90;38.78;100715.28;5088666;28;20486;-69
2022/04/18 16:05:13;;;;;;;18.30;9.23;;;;;;;37.94;38.24;100718.97;5090632;28;20409;-69
2022/04/18 16:07:39;;;;;;;14.20;9.43;;;;;;;37.95;38.68;100722.50;5092822;28;20413;-69
2022/04/18 16:10:06;;;;;;;18.43;8.00;;;;;;;38.00;38.18;100725.03;5092926;28;20440;-69
2022/04/18 16:12:32;;;;;;;13.37;8.30;;;;;;;37.96;38.19;100715.97;5071126;28;20452;-71
2022/04/18 16:14:59;;;;;;;21.83;11.40;;;;;;;37.98;38.49;100722.66;5057503;28;20410;-69
2022/04/18 16:17:25;;;;;;;16.70;7.77;;;;;;;38.05;38.69;100725.72;5075992;28;20390;-69
2022/04/18 16:19:54;;;;;;;14.43;7.80;;;;;;;38.08;38.51;100721.59;5093065;28;20405;-69
2022/04/18 16:22:24;;;;;;;17.23;9.27;;;;;;;38.05;38.41;100725.72;5092848;28;20429;-68
2022/04/18 16:24:50;;;;;;;19.40;8.40;;;;;;;37.99;38.36;100728.88;5091516;28;20420;-76
2022/04/18 16:27:17;;;;;;;17.33;7.17;;;;;;;37.88;38.86;100729.13;5089580;28;20452;-68
2022/04/18 16:32:30;;;;;;;15.70;7.77;;;;;;;37.88;39.26;100728.34;5093896;28;20827;-68
2022/04/18 16:34:56;;;;;;;26.50;9.10;;;;;;;37.90;39.61;100731.53;5093391;28;20413;-69
2022/04/18 16:37:22;;;;;;;15.60;9.57;;;;;;;37.94;39.72;100727.09;5093512;28;20420;-69
2022/04/18 16:39:48;;;;;;;18.50;7.23;;;;;;;37.96;39.79;100724.09;5091777;28;20424;-69
2022/04/18 16:47:43;;;;;;;14.90;9.20;;;;;;;37.92;39.69;100729.31;5094024;28;20423;-70
2022/04/18 16:50:09;;;;;;;21.20;8.47;;;;;;;37.96;39.49;100727.59;5093658;28;20557;-68
2022/04/18 16:52:35;;;;;;;18.00;8.87;;;;;;;37.95;39.33;100733.31;5093860;28;20431;-68
2022/04/18 16:55:01;;;;;;;18.30;8.43;;;;;;;37.96;39.82;100729.50;5092163;28;21052;-68
2022/04/18 16:57:27;;;;;;;24.87;9.33;;;;;;;37.95;40.06;100728.69;5092648;28;20432;-68
2022/04/18 16:59:53;;;;;;;18.83;7.60;;;;;;;37.92;40.08;100726.59;5092995;28;20416;-69
2022/04/18 17:02:19;;;;;;;17.73;8.20;;;;;;;37.95;39.59;100726.00;5092710;28;20424;-68
2022/04/18 17:04:45;;;;;;;17.63;8.43;;;;;;;37.94;39.91;100726.28;5069661;28;20933;-69
2022/04/18 17:07:15;;;;;;;24.57;9.13;;;;;;;37.97;39.77;100725.69;5091401;28;20412;-68
2022/04/18 17:09:42;;;;;;;14.70;8.27;;;;;;;37.95;39.65;100733.31;5092161;28;20433;-69
2022/04/18 17:12:08;;;;;;;16.77;11.37;;;;;;;37.95;39.73;100723.28;5075009;28;20429;-69
2022/04/18 17:14:35;;;;;;;17.40;9.27;;;;;;;37.96;39.31;100732.22;5092230;28;20448;-69
2022/04/18 17:17:05;;;;;;;22.90;8.27;;;;;;;37.95;39.54;100734.13;5092354;28;20478;-65
2022/04/18 17:19:32;;;;;;;16.80;8.33;;;;;;;37.98;39.70;100736.19;5092867;28;20409;-70
2022/04/18 17:22:01;;;;;;;18.27;9.67;;;;;;;37.96;39.90;100745.75;5091853;28;20413;-67
2022/04/18 17:24:27;;;;;;;17.90;10.63;;;;;;;37.97;39.65;100742.72;5073763;28;20418;-67
2022/04/18 17:26:54;;;;;;;21.70;9.60;;;;;;;37.98;40.03;100749.72;5075718;28;20515;-67
2022/04/18 17:29:21;;;;;;;20.07;9.33;;;;;;;37.96;40.07;100743.03;5092907;28;20444;-67
2022/04/18 17:31:47;;;;;;;13.93;8.40;;;;;;;37.93;39.94;100747.16;5093181;28;20405;-67
2022/04/18 17:34:25;;;;;;;16.10;8.13;;;;;;;37.86;39.89;100738.66;5092448;28;20513;-67
2022/04/18 17:36:52;;;;;;;14.93;7.27;;;;;;;37.85;39.75;100743.28;5092466;28;20521;-67
2022/04/18 17:39:20;;;;;;;15.10;8.93;;;;;;;37.79;39.86;100744.47;5093239;28;20420;-65
2022/04/18 17:41:49;;;;;;;16.07;9.20;;;;;;;37.74;40.19;100744.59;5093349;28;20413;-65
2022/04/18 17:44:20;;;;;;;25.13;9.43;;;;;;;37.67;40.14;100738.03;5092259;28;20463;-65
2022/04/18 17:46:50;;;;;;;18.20;9.40;;;;;;;37.68;40.55;100740.41;5092143;28;20456;-67
2022/04/18 17:49:16;;;;;;;17.43;9.83;;;;;;;37.65;40.59;100749.16;5091844;28;20425;-66
2022/04/18 17:51:44;;;;;;;25.60;8.70;;;;;;;37.68;40.63;100750.44;5095503;28;20425;-67
2022/04/18 17:56:56;;;;;;;15.13;8.47;;;;;;;37.69;40.41;100752.88;5091438;28;20440;-67
2022/04/18 17:59:23;;;;;;;12.37;8.57;;;;;;;37.69;40.90;100755.56;5092417;28;20509;-67
2022/04/18 18:01:52;;;;;;;11.23;6.90;;;;;;;37.72;40.38;100757.66;5093572;28;20404;-67
2022/04/18 18:04:18;;;;;;;21.53;9.47;;;;;;;37.76;40.08;100747.03;5091897;28;20424;-67
2022/04/18 18:06:45;;;;;;;24.33;12.47;;;;;;;37.55;40.11;100747.47;5092018;28;20420;-68